sensor_id;sensor_type;location;lat;lon;timestamp;P1;durP1;ratioP1;P2;durP2;ratioP2
44222;SDS011;29895;48.804;9.386;2024-02-04T00:02:07;2.75;;;1.33;;
44222;SDS011;29895;48.804;9.386;2024-02-04T00:04:34;2.13;;;0.80;;
44222;SDS011;29895;48.804;9.386;2024-02-04T00:07:00;2.00;;;0.85;;
44222;SDS011;29895;48.804;9.386;2024-02-04T00:09:26;1.02;;;0.40;;
44222;SDS011;29895;48.804;9.386;2024-02-04T00:11:54;1.20;;;0.43;;
44222;SDS011;29895;48.804;9.386;2024-02-04T00:14:19;0.88;;;0.57;;
44222;SDS011;29895;48.804;9.386;2024-02-04T00:16:45;1.45;;;0.50;;
44222;SDS011;29895;48.804;9.386;2024-02-04T00:19:10;1.13;;;0.57;;
44222;SDS011;29895;48.804;9.386;2024-02-04T00:21:36;0.55;;;0.40;;
44222;SDS011;29895;48.804;9.386;2024-02-04T00:24:02;1.10;;;0.60;;
44222;SDS011;29895;48.804;9.386;2024-02-04T00:26:28;1.40;;;0.73;;
44222;SDS011;29895;48.804;9.386;2024-02-04T00:28:53;1.30;;;0.70;;
44222;SDS011;29895;48.804;9.386;2024-02-04T00:31:19;0.50;;;0.40;;
44222;SDS011;29895;48.804;9.386;2024-02-04T00:33:44;0.82;;;0.50;;
44222;SDS011;29895;48.804;9.386;2024-02-04T00:36:10;1.27;;;0.70;;
44222;SDS011;29895;48.804;9.386;2024-02-04T00:38:35;1.40;;;0.50;;
44222;SDS011;29895;48.804;9.386;2024-02-04T00:41:01;0.50;;;0.40;;
44222;SDS011;29895;48.804;9.386;2024-02-04T00:43:27;1.17;;;0.55;;
44222;SDS011;29895;48.804;9.386;2024-02-04T00:45:52;0.70;;;0.50;;
44222;SDS011;29895;48.804;9.386;2024-02-04T00:48:21;1.85;;;0.80;;
44222;SDS011;29895;48.804;9.386;2024-02-04T00:50:47;0.93;;;0.52;;
44222;SDS011;29895;48.804;9.386;2024-02-04T00:53:12;1.17;;;0.57;;
44222;SDS011;29895;48.804;9.386;2024-02-04T00:55:38;1.77;;;0.90;;
44222;SDS011;29895;48.804;9.386;2024-02-04T00:58:04;0.63;;;0.40;;
44222;SDS011;29895;48.804;9.386;2024-02-04T01:00:29;1.67;;;0.60;;
44222;SDS011;29895;48.804;9.386;2024-02-04T01:02:55;0.75;;;0.43;;
44222;SDS011;29895;48.804;9.386;2024-02-04T01:05:21;0.70;;;0.28;;
44222;SDS011;29895;48.804;9.386;2024-02-04T01:07:46;2.05;;;0.70;;
44222;SDS011;29895;48.804;9.386;2024-02-04T01:10:12;1.20;;;0.60;;
44222;SDS011;29895;48.804;9.386;2024-02-04T01:12:38;1.02;;;0.45;;
44222;SDS011;29895;48.804;9.386;2024-02-04T01:15:03;0.88;;;0.50;;
44222;SDS011;29895;48.804;9.386;2024-02-04T01:17:30;0.65;;;0.40;;
44222;SDS011;29895;48.804;9.386;2024-02-04T01:19:57;0.88;;;0.40;;
44222;SDS011;29895;48.804;9.386;2024-02-04T01:22:22;1.27;;;0.40;;
44222;SDS011;29895;48.804;9.386;2024-02-04T01:24:51;0.40;;;0.30;;
44222;SDS011;29895;48.804;9.386;2024-02-04T01:27:17;0.77;;;0.40;;
44222;SDS011;29895;48.804;9.386;2024-02-04T01:29:42;1.75;;;0.40;;
44222;SDS011;29895;48.804;9.386;2024-02-04T01:32:08;0.63;;;0.40;;
44222;SDS011;29895;48.804;9.386;2024-02-04T01:34:34;2.15;;;0.30;;
44222;SDS011;29895;48.804;9.386;2024-02-04T01:36:59;0.77;;;0.32;;
44222;SDS011;29895;48.804;9.386;2024-02-04T01:39:25;0.50;;;0.50;;
44222;SDS011;29895;48.804;9.386;2024-02-04T01:41:50;0.50;;;0.32;;
44222;SDS011;29895;48.804;9.386;2024-02-04T01:44:16;1.25;;;0.40;;
44222;SDS011;29895;48.804;9.386;2024-02-04T01:46:43;0.30;;;0.30;;
44222;SDS011;29895;48.804;9.386;2024-02-04T01:49:09;0.32;;;0.30;;
44222;SDS011;29895;48.804;9.386;2024-02-04T01:51:35;0.93;;;0.50;;
44222;SDS011;29895;48.804;9.386;2024-02-04T01:54:02;0.65;;;0.50;;
44222;SDS011;29895;48.804;9.386;2024-02-04T01:56:28;0.82;;;0.40;;
44222;SDS011;29895;48.804;9.386;2024-02-04T01:58:55;0.85;;;0.40;;
44222;SDS011;29895;48.804;9.386;2024-02-04T02:01:21;0.50;;;0.40;;
44222;SDS011;29895;48.804;9.386;2024-02-04T02:03:48;0.55;;;0.40;;
44222;SDS011;29895;48.804;9.386;2024-02-04T02:06:15;0.30;;;0.30;;
44222;SDS011;29895;48.804;9.386;2024-02-04T02:08:41;1.00;;;0.60;;
44222;SDS011;29895;48.804;9.386;2024-02-04T02:11:32;0.73;;;0.35;;
44222;SDS011;29895;48.804;9.386;2024-02-04T02:14:03;1.05;;;0.50;;
44222;SDS011;29895;48.804;9.386;2024-02-04T02:16:32;0.40;;;0.30;;
44222;SDS011;29895;48.804;9.386;2024-02-04T02:19:12;0.68;;;0.40;;
44222;SDS011;29895;48.804;9.386;2024-02-04T02:21:50;0.52;;;0.40;;
44222;SDS011;29895;48.804;9.386;2024-02-04T02:26:47;0.93;;;0.60;;
44222;SDS011;29895;48.804;9.386;2024-02-04T02:29:15;1.73;;;0.50;;
44222;SDS011;29895;48.804;9.386;2024-02-04T02:31:41;2.42;;;1.13;;
44222;SDS011;29895;48.804;9.386;2024-02-04T02:34:08;1.25;;;0.70;;
44222;SDS011;29895;48.804;9.386;2024-02-04T02:36:36;0.88;;;0.50;;
44222;SDS011;29895;48.804;9.386;2024-02-04T02:39:25;1.10;;;0.45;;
44222;SDS011;29895;48.804;9.386;2024-02-04T02:41:57;0.30;;;0.30;;
44222;SDS011;29895;48.804;9.386;2024-02-04T02:44:27;0.73;;;0.47;;
44222;SDS011;29895;48.804;9.386;2024-02-04T02:46:57;0.45;;;0.40;;
44222;SDS011;29895;48.804;9.386;2024-02-04T02:49:23;0.88;;;0.50;;
44222;SDS011;29895;48.804;9.386;2024-02-04T02:51:49;0.38;;;0.38;;
44222;SDS011;29895;48.804;9.386;2024-02-04T02:54:15;0.70;;;0.40;;
44222;SDS011;29895;48.804;9.386;2024-02-04T02:56:40;0.88;;;0.40;;
44222;SDS011;29895;48.804;9.386;2024-02-04T02:59:06;0.57;;;0.30;;
44222;SDS011;29895;48.804;9.386;2024-02-04T03:01:33;0.57;;;0.38;;
44222;SDS011;29895;48.804;9.386;2024-02-04T03:03:58;0.98;;;0.60;;
44222;SDS011;29895;48.804;9.386;2024-02-04T03:06:24;0.65;;;0.55;;
44222;SDS011;29895;48.804;9.386;2024-02-04T03:08:49;1.17;;;0.57;;
44222;SDS011;29895;48.804;9.386;2024-02-04T03:11:15;0.52;;;0.50;;
44222;SDS011;29895;48.804;9.386;2024-02-04T03:13:41;1.10;;;0.57;;
44222;SDS011;29895;48.804;9.386;2024-02-04T03:16:12;0.82;;;0.50;;
44222;SDS011;29895;48.804;9.386;2024-02-04T03:18:41;0.65;;;0.50;;
44222;SDS011;29895;48.804;9.386;2024-02-04T03:21:14;1.00;;;0.68;;
44222;SDS011;29895;48.804;9.386;2024-02-04T03:23:40;1.65;;;0.68;;
44222;SDS011;29895;48.804;9.386;2024-02-04T03:26:07;0.82;;;0.60;;
44222;SDS011;29895;48.804;9.386;2024-02-04T03:28:36;0.93;;;0.68;;
44222;SDS011;29895;48.804;9.386;2024-02-04T03:31:03;1.00;;;0.70;;
44222;SDS011;29895;48.804;9.386;2024-02-04T03:33:28;2.22;;;0.68;;
44222;SDS011;29895;48.804;9.386;2024-02-04T03:35:54;1.98;;;0.60;;
44222;SDS011;29895;48.804;9.386;2024-02-04T03:38:20;0.68;;;0.50;;
44222;SDS011;29895;48.804;9.386;2024-02-04T03:40:45;0.63;;;0.50;;
44222;SDS011;29895;48.804;9.386;2024-02-04T03:43:13;1.80;;;0.50;;
44222;SDS011;29895;48.804;9.386;2024-02-04T03:45:39;0.47;;;0.47;;
44222;SDS011;29895;48.804;9.386;2024-02-04T03:48:05;1.48;;;0.60;;
44222;SDS011;29895;48.804;9.386;2024-02-04T03:50:31;0.68;;;0.50;;
44222;SDS011;29895;48.804;9.386;2024-02-04T03:52:56;1.02;;;0.60;;
44222;SDS011;29895;48.804;9.386;2024-02-04T03:55:22;0.70;;;0.50;;
44222;SDS011;29895;48.804;9.386;2024-02-04T03:57:47;0.90;;;0.52;;
44222;SDS011;29895;48.804;9.386;2024-02-04T04:00:13;1.20;;;0.57;;
44222;SDS011;29895;48.804;9.386;2024-02-04T04:02:39;1.20;;;0.50;;
44222;SDS011;29895;48.804;9.386;2024-02-04T04:05:06;0.80;;;0.40;;
44222;SDS011;29895;48.804;9.386;2024-02-04T04:07:35;1.13;;;0.50;;
44222;SDS011;29895;48.804;9.386;2024-02-04T04:10:00;0.50;;;0.50;;
44222;SDS011;29895;48.804;9.386;2024-02-04T04:12:26;0.60;;;0.50;;
44222;SDS011;29895;48.804;9.386;2024-02-04T04:14:52;1.75;;;0.70;;
44222;SDS011;29895;48.804;9.386;2024-02-04T04:17:18;0.75;;;0.60;;
44222;SDS011;29895;48.804;9.386;2024-02-04T04:19:43;1.00;;;0.60;;
44222;SDS011;29895;48.804;9.386;2024-02-04T04:22:09;0.85;;;0.40;;
44222;SDS011;29895;48.804;9.386;2024-02-04T04:24:35;0.90;;;0.60;;
44222;SDS011;29895;48.804;9.386;2024-02-04T04:27:02;0.90;;;0.70;;
44222;SDS011;29895;48.804;9.386;2024-02-04T04:29:28;1.00;;;0.50;;
44222;SDS011;29895;48.804;9.386;2024-02-04T04:31:54;2.40;;;1.00;;
44222;SDS011;29895;48.804;9.386;2024-02-04T04:34:19;0.65;;;0.50;;
44222;SDS011;29895;48.804;9.386;2024-02-04T04:36:46;0.68;;;0.50;;
44222;SDS011;29895;48.804;9.386;2024-02-04T04:39:11;1.17;;;0.70;;
44222;SDS011;29895;48.804;9.386;2024-02-04T04:41:38;0.57;;;0.50;;
44222;SDS011;29895;48.804;9.386;2024-02-04T04:44:04;0.90;;;0.73;;
44222;SDS011;29895;48.804;9.386;2024-02-04T04:46:30;1.23;;;0.77;;
44222;SDS011;29895;48.804;9.386;2024-02-04T04:48:56;0.57;;;0.40;;
44222;SDS011;29895;48.804;9.386;2024-02-04T04:51:23;0.93;;;0.40;;
44222;SDS011;29895;48.804;9.386;2024-02-04T04:53:49;0.50;;;0.47;;
44222;SDS011;29895;48.804;9.386;2024-02-04T04:56:15;1.17;;;0.70;;
44222;SDS011;29895;48.804;9.386;2024-02-04T04:58:40;2.25;;;1.55;;
44222;SDS011;29895;48.804;9.386;2024-02-04T05:01:06;3.78;;;3.40;;
44222;SDS011;29895;48.804;9.386;2024-02-04T05:03:32;12.68;;;9.68;;
44222;SDS011;29895;48.804;9.386;2024-02-04T05:05:57;12.80;;;9.82;;
44222;SDS011;29895;48.804;9.386;2024-02-04T05:08:23;3.92;;;3.53;;
44222;SDS011;29895;48.804;9.386;2024-02-04T05:10:49;1.60;;;1.50;;
44222;SDS011;29895;48.804;9.386;2024-02-04T05:13:14;2.80;;;2.50;;
44222;SDS011;29895;48.804;9.386;2024-02-04T05:15:40;4.72;;;3.75;;
44222;SDS011;29895;48.804;9.386;2024-02-04T05:18:06;4.55;;;3.72;;
44222;SDS011;29895;48.804;9.386;2024-02-04T05:20:31;4.35;;;3.95;;
44222;SDS011;29895;48.804;9.386;2024-02-04T05:22:57;3.38;;;2.92;;
44222;SDS011;29895;48.804;9.386;2024-02-04T05:25:23;1.48;;;1.38;;
44222;SDS011;29895;48.804;9.386;2024-02-04T05:27:50;1.83;;;1.25;;
44222;SDS011;29895;48.804;9.386;2024-02-04T05:30:16;1.35;;;0.80;;
44222;SDS011;29895;48.804;9.386;2024-02-04T05:32:41;0.80;;;0.80;;
44222;SDS011;29895;48.804;9.386;2024-02-04T05:35:09;0.85;;;0.60;;
44222;SDS011;29895;48.804;9.386;2024-02-04T05:37:35;1.45;;;0.88;;
44222;SDS011;29895;48.804;9.386;2024-02-04T05:40:01;1.10;;;0.70;;
44222;SDS011;29895;48.804;9.386;2024-02-04T05:42:28;1.05;;;0.75;;
44222;SDS011;29895;48.804;9.386;2024-02-04T05:44:54;1.23;;;0.50;;
44222;SDS011;29895;48.804;9.386;2024-02-04T05:47:20;0.40;;;0.30;;
44222;SDS011;29895;48.804;9.386;2024-02-04T05:49:45;0.47;;;0.30;;
44222;SDS011;29895;48.804;9.386;2024-02-04T05:52:11;0.82;;;0.50;;
44222;SDS011;29895;48.804;9.386;2024-02-04T05:54:40;1.17;;;0.32;;
44222;SDS011;29895;48.804;9.386;2024-02-04T05:57:06;0.45;;;0.40;;
44222;SDS011;29895;48.804;9.386;2024-02-04T05:59:32;0.95;;;0.65;;
44222;SDS011;29895;48.804;9.386;2024-02-04T06:01:58;1.98;;;0.82;;
44222;SDS011;29895;48.804;9.386;2024-02-04T06:04:24;1.73;;;0.70;;
44222;SDS011;29895;48.804;9.386;2024-02-04T06:06:50;0.73;;;0.47;;
44222;SDS011;29895;48.804;9.386;2024-02-04T06:09:15;1.20;;;0.70;;
44222;SDS011;29895;48.804;9.386;2024-02-04T06:11:44;1.20;;;0.98;;
44222;SDS011;29895;48.804;9.386;2024-02-04T06:14:11;1.65;;;1.05;;
44222;SDS011;29895;48.804;9.386;2024-02-04T06:16:36;1.02;;;0.70;;
44222;SDS011;29895;48.804;9.386;2024-02-04T06:19:02;0.88;;;0.70;;
44222;SDS011;29895;48.804;9.386;2024-02-04T06:21:28;2.65;;;0.70;;
44222;SDS011;29895;48.804;9.386;2024-02-04T06:23:53;2.47;;;1.17;;
44222;SDS011;29895;48.804;9.386;2024-02-04T06:26:19;2.40;;;0.60;;
44222;SDS011;29895;48.804;9.386;2024-02-04T06:28:45;0.75;;;0.60;;
44222;SDS011;29895;48.804;9.386;2024-02-04T06:31:11;2.25;;;2.05;;
44222;SDS011;29895;48.804;9.386;2024-02-04T06:33:38;2.58;;;1.52;;
44222;SDS011;29895;48.804;9.386;2024-02-04T06:36:08;2.78;;;2.53;;
44222;SDS011;29895;48.804;9.386;2024-02-04T06:38:35;3.53;;;3.22;;
44222;SDS011;29895;48.804;9.386;2024-02-04T06:41:00;2.42;;;1.38;;
44222;SDS011;29895;48.804;9.386;2024-02-04T06:43:26;2.83;;;2.00;;
44222;SDS011;29895;48.804;9.386;2024-02-04T06:45:52;1.52;;;0.73;;
44222;SDS011;29895;48.804;9.386;2024-02-04T06:48:20;2.97;;;2.67;;
44222;SDS011;29895;48.804;9.386;2024-02-04T06:50:46;0.60;;;0.60;;
44222;SDS011;29895;48.804;9.386;2024-02-04T06:53:13;1.20;;;0.50;;
44222;SDS011;29895;48.804;9.386;2024-02-04T06:55:39;0.40;;;0.40;;
44222;SDS011;29895;48.804;9.386;2024-02-04T06:58:05;0.70;;;0.60;;
44222;SDS011;29895;48.804;9.386;2024-02-04T07:00:30;1.05;;;0.80;;
44222;SDS011;29895;48.804;9.386;2024-02-04T07:02:56;0.93;;;0.63;;
44222;SDS011;29895;48.804;9.386;2024-02-04T07:05:22;0.95;;;0.77;;
44222;SDS011;29895;48.804;9.386;2024-02-04T07:07:48;0.68;;;0.60;;
44222;SDS011;29895;48.804;9.386;2024-02-04T07:10:14;1.17;;;0.50;;
44222;SDS011;29895;48.804;9.386;2024-02-04T07:12:41;0.70;;;0.60;;
44222;SDS011;29895;48.804;9.386;2024-02-04T07:15:07;1.15;;;0.68;;
44222;SDS011;29895;48.804;9.386;2024-02-04T07:17:33;2.40;;;1.27;;
44222;SDS011;29895;48.804;9.386;2024-02-04T07:20:00;1.27;;;0.90;;
44222;SDS011;29895;48.804;9.386;2024-02-04T07:22:26;0.93;;;0.57;;
44222;SDS011;29895;48.804;9.386;2024-02-04T07:24:52;1.23;;;0.82;;
44222;SDS011;29895;48.804;9.386;2024-02-04T07:27:17;1.02;;;0.52;;
44222;SDS011;29895;48.804;9.386;2024-02-04T07:29:43;1.40;;;0.98;;
44222;SDS011;29895;48.804;9.386;2024-02-04T07:32:09;1.10;;;0.90;;
44222;SDS011;29895;48.804;9.386;2024-02-04T07:34:34;1.58;;;1.45;;
44222;SDS011;29895;48.804;9.386;2024-02-04T07:37:00;1.20;;;0.60;;
44222;SDS011;29895;48.804;9.386;2024-02-04T07:39:26;1.23;;;0.88;;
44222;SDS011;29895;48.804;9.386;2024-02-04T07:41:51;1.48;;;0.80;;
44222;SDS011;29895;48.804;9.386;2024-02-04T07:44:19;1.30;;;0.70;;
44222;SDS011;29895;48.804;9.386;2024-02-04T07:46:44;0.95;;;0.70;;
44222;SDS011;29895;48.804;9.386;2024-02-04T07:49:10;1.23;;;0.98;;
44222;SDS011;29895;48.804;9.386;2024-02-04T07:51:36;1.52;;;0.90;;
44222;SDS011;29895;48.804;9.386;2024-02-04T07:54:02;1.30;;;1.08;;
44222;SDS011;29895;48.804;9.386;2024-02-04T07:56:29;1.05;;;0.90;;
44222;SDS011;29895;48.804;9.386;2024-02-04T07:58:54;0.98;;;0.60;;
44222;SDS011;29895;48.804;9.386;2024-02-04T08:01:20;0.75;;;0.43;;
44222;SDS011;29895;48.804;9.386;2024-02-04T08:03:46;1.08;;;0.95;;
44222;SDS011;29895;48.804;9.386;2024-02-04T08:06:12;3.15;;;1.13;;
44222;SDS011;29895;48.804;9.386;2024-02-04T08:08:38;2.42;;;1.25;;
44222;SDS011;29895;48.804;9.386;2024-02-04T08:11:03;3.53;;;0.80;;
44222;SDS011;29895;48.804;9.386;2024-02-04T08:13:29;2.47;;;0.70;;
44222;SDS011;29895;48.804;9.386;2024-02-04T08:15:55;1.90;;;1.27;;
44222;SDS011;29895;48.804;9.386;2024-02-04T08:18:20;1.58;;;1.00;;
44222;SDS011;29895;48.804;9.386;2024-02-04T08:20:46;2.80;;;0.70;;
44222;SDS011;29895;48.804;9.386;2024-02-04T08:23:11;2.58;;;1.30;;
44222;SDS011;29895;48.804;9.386;2024-02-04T08:25:37;1.85;;;1.00;;
44222;SDS011;29895;48.804;9.386;2024-02-04T08:28:03;2.67;;;0.98;;
44222;SDS011;29895;48.804;9.386;2024-02-04T08:30:29;1.35;;;0.50;;
44222;SDS011;29895;48.804;9.386;2024-02-04T08:32:54;2.30;;;0.80;;
44222;SDS011;29895;48.804;9.386;2024-02-04T08:35:20;1.08;;;0.65;;
44222;SDS011;29895;48.804;9.386;2024-02-04T08:37:46;2.90;;;1.02;;
44222;SDS011;29895;48.804;9.386;2024-02-04T08:40:12;2.53;;;0.90;;
44222;SDS011;29895;48.804;9.386;2024-02-04T08:42:38;2.28;;;1.38;;
44222;SDS011;29895;48.804;9.386;2024-02-04T08:45:03;0.50;;;0.50;;
44222;SDS011;29895;48.804;9.386;2024-02-04T08:47:30;1.60;;;0.47;;
44222;SDS011;29895;48.804;9.386;2024-02-04T08:49:55;0.65;;;0.45;;
44222;SDS011;29895;48.804;9.386;2024-02-04T08:52:22;1.15;;;0.60;;
44222;SDS011;29895;48.804;9.386;2024-02-04T08:54:49;0.73;;;0.50;;
44222;SDS011;29895;48.804;9.386;2024-02-04T08:57:15;0.60;;;0.43;;
44222;SDS011;29895;48.804;9.386;2024-02-04T08:59:41;0.93;;;0.60;;
44222;SDS011;29895;48.804;9.386;2024-02-04T09:02:07;1.27;;;0.55;;
44222;SDS011;29895;48.804;9.386;2024-02-04T09:04:33;0.65;;;0.50;;
44222;SDS011;29895;48.804;9.386;2024-02-04T09:07:05;2.28;;;0.50;;
44222;SDS011;29895;48.804;9.386;2024-02-04T09:09:31;1.92;;;0.70;;
44222;SDS011;29895;48.804;9.386;2024-02-04T09:11:57;0.65;;;0.40;;
44222;SDS011;29895;48.804;9.386;2024-02-04T09:14:23;1.10;;;0.60;;
44222;SDS011;29895;48.804;9.386;2024-02-04T09:16:48;0.98;;;0.50;;
44222;SDS011;29895;48.804;9.386;2024-02-04T09:19:14;2.00;;;0.77;;
44222;SDS011;29895;48.804;9.386;2024-02-04T09:21:39;1.00;;;0.60;;
44222;SDS011;29895;48.804;9.386;2024-02-04T09:24:05;0.50;;;0.40;;
44222;SDS011;29895;48.804;9.386;2024-02-04T09:26:31;1.30;;;0.60;;
44222;SDS011;29895;48.804;9.386;2024-02-04T09:28:56;0.85;;;0.60;;
44222;SDS011;29895;48.804;9.386;2024-02-04T09:31:22;1.00;;;0.55;;
44222;SDS011;29895;48.804;9.386;2024-02-04T09:33:48;1.83;;;0.50;;
44222;SDS011;29895;48.804;9.386;2024-02-04T09:36:13;0.68;;;0.45;;
44222;SDS011;29895;48.804;9.386;2024-02-04T09:38:39;1.55;;;0.70;;
44222;SDS011;29895;48.804;9.386;2024-02-04T09:41:05;2.72;;;0.73;;
44222;SDS011;29895;48.804;9.386;2024-02-04T09:43:34;0.80;;;0.60;;
44222;SDS011;29895;48.804;9.386;2024-02-04T09:46:01;1.02;;;0.50;;
44222;SDS011;29895;48.804;9.386;2024-02-04T09:48:31;0.40;;;0.38;;
44222;SDS011;29895;48.804;9.386;2024-02-04T09:50:58;4.43;;;2.77;;
44222;SDS011;29895;48.804;9.386;2024-02-04T09:53:33;1.83;;;0.98;;
44222;SDS011;29895;48.804;9.386;2024-02-04T09:56:01;1.08;;;0.50;;
44222;SDS011;29895;48.804;9.386;2024-02-04T09:58:28;4.65;;;0.75;;
44222;SDS011;29895;48.804;9.386;2024-02-04T10:00:54;2.67;;;0.80;;
44222;SDS011;29895;48.804;9.386;2024-02-04T10:03:20;1.10;;;0.70;;
44222;SDS011;29895;48.804;9.386;2024-02-04T10:05:46;2.70;;;0.70;;
44222;SDS011;29895;48.804;9.386;2024-02-04T10:08:12;1.10;;;0.70;;
44222;SDS011;29895;48.804;9.386;2024-02-04T10:10:39;1.65;;;0.70;;
44222;SDS011;29895;48.804;9.386;2024-02-04T10:13:07;0.82;;;0.70;;
44222;SDS011;29895;48.804;9.386;2024-02-04T10:15:34;1.20;;;0.70;;
44222;SDS011;29895;48.804;9.386;2024-02-04T10:18:03;4.93;;;1.95;;
44222;SDS011;29895;48.804;9.386;2024-02-04T10:20:30;1.38;;;1.17;;
44222;SDS011;29895;48.804;9.386;2024-02-04T10:22:56;1.48;;;0.65;;
44222;SDS011;29895;48.804;9.386;2024-02-04T10:25:22;1.38;;;0.73;;
44222;SDS011;29895;48.804;9.386;2024-02-04T10:27:48;1.13;;;0.93;;
44222;SDS011;29895;48.804;9.386;2024-02-04T10:30:13;1.40;;;0.70;;
44222;SDS011;29895;48.804;9.386;2024-02-04T10:32:41;1.38;;;0.50;;
44222;SDS011;29895;48.804;9.386;2024-02-04T10:35:07;1.40;;;0.88;;
44222;SDS011;29895;48.804;9.386;2024-02-04T10:37:33;1.88;;;1.50;;
44222;SDS011;29895;48.804;9.386;2024-02-04T10:39:59;3.17;;;1.10;;
44222;SDS011;29895;48.804;9.386;2024-02-04T10:42:26;1.58;;;0.85;;
44222;SDS011;29895;48.804;9.386;2024-02-04T10:44:53;3.65;;;1.00;;
44222;SDS011;29895;48.804;9.386;2024-02-04T10:47:23;1.40;;;0.77;;
44222;SDS011;29895;48.804;9.386;2024-02-04T10:49:51;1.40;;;1.02;;
44222;SDS011;29895;48.804;9.386;2024-02-04T10:52:20;3.63;;;1.00;;
44222;SDS011;29895;48.804;9.386;2024-02-04T10:54:51;2.85;;;2.40;;
44222;SDS011;29895;48.804;9.386;2024-02-04T10:57:21;5.15;;;2.67;;
44222;SDS011;29895;48.804;9.386;2024-02-04T10:59:51;5.75;;;4.32;;
44222;SDS011;29895;48.804;9.386;2024-02-04T11:02:19;1.15;;;1.05;;
44222;SDS011;29895;48.804;9.386;2024-02-04T11:04:45;0.90;;;0.60;;
44222;SDS011;29895;48.804;9.386;2024-02-04T11:07:14;1.60;;;1.25;;
44222;SDS011;29895;48.804;9.386;2024-02-04T11:09:42;1.02;;;0.70;;
44222;SDS011;29895;48.804;9.386;2024-02-04T11:12:11;3.17;;;0.60;;
44222;SDS011;29895;48.804;9.386;2024-02-04T11:14:40;3.45;;;0.85;;
44222;SDS011;29895;48.804;9.386;2024-02-04T11:25:50;3.53;;;1.70;;
44222;SDS011;29895;48.804;9.386;2024-02-04T11:28:19;1.15;;;0.85;;
44222;SDS011;29895;48.804;9.386;2024-02-04T11:30:46;0.88;;;0.70;;
44222;SDS011;29895;48.804;9.386;2024-02-04T11:33:13;2.45;;;0.70;;
44222;SDS011;29895;48.804;9.386;2024-02-04T11:35:43;1.48;;;0.30;;
44222;SDS011;29895;48.804;9.386;2024-02-04T11:38:09;4.70;;;1.08;;
44222;SDS011;29895;48.804;9.386;2024-02-04T11:40:37;3.35;;;0.60;;
44222;SDS011;29895;48.804;9.386;2024-02-04T11:45:39;0.95;;;0.40;;
44222;SDS011;29895;48.804;9.386;2024-02-04T11:48:09;0.50;;;0.40;;
44222;SDS011;29895;48.804;9.386;2024-02-04T11:50:35;2.72;;;0.73;;
44222;SDS011;29895;48.804;9.386;2024-02-04T11:53:09;2.65;;;0.52;;
44222;SDS011;29895;48.804;9.386;2024-02-04T11:55:38;1.77;;;0.70;;
44222;SDS011;29895;48.804;9.386;2024-02-04T11:58:05;1.02;;;0.50;;
44222;SDS011;29895;48.804;9.386;2024-02-04T12:00:32;2.00;;;0.40;;
44222;SDS011;29895;48.804;9.386;2024-02-04T12:03:05;3.80;;;0.75;;
44222;SDS011;29895;48.804;9.386;2024-02-04T12:05:34;3.63;;;0.93;;
44222;SDS011;29895;48.804;9.386;2024-02-04T12:08:01;3.75;;;0.70;;
44222;SDS011;29895;48.804;9.386;2024-02-04T12:10:29;1.92;;;0.80;;
44222;SDS011;29895;48.804;9.386;2024-02-04T12:12:56;2.33;;;0.60;;
44222;SDS011;29895;48.804;9.386;2024-02-04T12:15:24;1.02;;;0.57;;
44222;SDS011;29895;48.804;9.386;2024-02-04T12:17:50;1.42;;;0.40;;
44222;SDS011;29895;48.804;9.386;2024-02-04T12:20:16;1.13;;;0.60;;
44222;SDS011;29895;48.804;9.386;2024-02-04T12:22:42;1.52;;;0.90;;
44222;SDS011;29895;48.804;9.386;2024-02-04T12:25:08;2.17;;;0.77;;
44222;SDS011;29895;48.804;9.386;2024-02-04T12:27:34;1.30;;;0.55;;
44222;SDS011;29895;48.804;9.386;2024-02-04T12:30:00;0.20;;;0.10;;
44222;SDS011;29895;48.804;9.386;2024-02-04T12:32:25;0.25;;;0.13;;
44222;SDS011;29895;48.804;9.386;2024-02-04T12:34:51;1.05;;;0.32;;
44222;SDS011;29895;48.804;9.386;2024-02-04T12:37:19;1.15;;;0.40;;
44222;SDS011;29895;48.804;9.386;2024-02-04T12:39:45;4.45;;;0.30;;
44222;SDS011;29895;48.804;9.386;2024-02-04T12:42:14;0.57;;;0.10;;
44222;SDS011;29895;48.804;9.386;2024-02-04T12:44:44;0.75;;;0.15;;
44222;SDS011;29895;48.804;9.386;2024-02-04T12:47:10;0.35;;;0.17;;
44222;SDS011;29895;48.804;9.386;2024-02-04T12:49:36;0.40;;;0.30;;
44222;SDS011;29895;48.804;9.386;2024-02-04T12:52:05;1.88;;;0.60;;
44222;SDS011;29895;48.804;9.386;2024-02-04T12:54:39;2.92;;;0.68;;
44222;SDS011;29895;48.804;9.386;2024-02-04T12:57:06;1.58;;;0.40;;
44222;SDS011;29895;48.804;9.386;2024-02-04T12:59:32;0.32;;;0.20;;
44222;SDS011;29895;48.804;9.386;2024-02-04T13:02:02;1.58;;;0.40;;
44222;SDS011;29895;48.804;9.386;2024-02-04T13:09:34;0.60;;;0.38;;
44222;SDS011;29895;48.804;9.386;2024-02-04T13:12:03;0.77;;;0.40;;
44222;SDS011;29895;48.804;9.386;2024-02-04T13:14:36;1.95;;;0.35;;
44222;SDS011;29895;48.804;9.386;2024-02-04T13:17:02;0.80;;;0.30;;
44222;SDS011;29895;48.804;9.386;2024-02-04T13:19:34;1.73;;;0.90;;
44222;SDS011;29895;48.804;9.386;2024-02-04T13:22:02;1.45;;;0.50;;
44222;SDS011;29895;48.804;9.386;2024-02-04T13:24:31;1.60;;;0.80;;
44222;SDS011;29895;48.804;9.386;2024-02-04T13:27:00;2.08;;;0.60;;
44222;SDS011;29895;48.804;9.386;2024-02-04T13:29:29;2.25;;;0.50;;
44222;SDS011;29895;48.804;9.386;2024-02-04T13:31:55;1.25;;;0.55;;
44222;SDS011;29895;48.804;9.386;2024-02-04T13:34:20;0.88;;;0.40;;
44222;SDS011;29895;48.804;9.386;2024-02-04T13:36:46;1.10;;;0.60;;
44222;SDS011;29895;48.804;9.386;2024-02-04T13:39:12;0.88;;;0.50;;
44222;SDS011;29895;48.804;9.386;2024-02-04T13:41:38;1.67;;;0.65;;
44222;SDS011;29895;48.804;9.386;2024-02-04T13:44:07;2.63;;;0.60;;
44222;SDS011;29895;48.804;9.386;2024-02-04T13:46:33;1.85;;;0.98;;
44222;SDS011;29895;48.804;9.386;2024-02-04T13:48:58;1.17;;;0.50;;
44222;SDS011;29895;48.804;9.386;2024-02-04T13:51:24;0.95;;;0.60;;
44222;SDS011;29895;48.804;9.386;2024-02-04T13:53:50;0.85;;;0.25;;
44222;SDS011;29895;48.804;9.386;2024-02-04T13:56:16;0.77;;;0.38;;
44222;SDS011;29895;48.804;9.386;2024-02-04T13:58:44;0.45;;;0.20;;
44222;SDS011;29895;48.804;9.386;2024-02-04T14:01:10;0.45;;;0.20;;
44222;SDS011;29895;48.804;9.386;2024-02-04T14:03:35;3.50;;;0.50;;
44222;SDS011;29895;48.804;9.386;2024-02-04T14:06:01;0.88;;;0.50;;
44222;SDS011;29895;48.804;9.386;2024-02-04T14:08:28;0.70;;;0.20;;
44222;SDS011;29895;48.804;9.386;2024-02-04T14:10:55;1.15;;;0.40;;
44222;SDS011;29895;48.804;9.386;2024-02-04T14:13:20;1.05;;;0.38;;
44222;SDS011;29895;48.804;9.386;2024-02-04T14:15:46;0.50;;;0.25;;
44222;SDS011;29895;48.804;9.386;2024-02-04T14:18:12;1.52;;;0.43;;
44222;SDS011;29895;48.804;9.386;2024-02-04T14:20:37;2.65;;;0.90;;
44222;SDS011;29895;48.804;9.386;2024-02-04T14:23:03;1.05;;;0.55;;
44222;SDS011;29895;48.804;9.386;2024-02-04T14:25:29;1.95;;;0.30;;
44222;SDS011;29895;48.804;9.386;2024-02-04T14:27:54;0.45;;;0.30;;
44222;SDS011;29895;48.804;9.386;2024-02-04T14:30:20;1.65;;;0.43;;
44222;SDS011;29895;48.804;9.386;2024-02-04T14:32:45;2.08;;;0.40;;
44222;SDS011;29895;48.804;9.386;2024-02-04T14:35:11;0.35;;;0.13;;
44222;SDS011;29895;48.804;9.386;2024-02-04T14:37:37;1.05;;;0.40;;
44222;SDS011;29895;48.804;9.386;2024-02-04T14:40:04;1.13;;;0.45;;
44222;SDS011;29895;48.804;9.386;2024-02-04T14:42:31;0.98;;;0.52;;
44222;SDS011;29895;48.804;9.386;2024-02-04T14:44:57;0.57;;;0.30;;
44222;SDS011;29895;48.804;9.386;2024-02-04T14:47:25;1.42;;;0.20;;
44222;SDS011;29895;48.804;9.386;2024-02-04T14:49:54;1.33;;;0.47;;
44222;SDS011;29895;48.804;9.386;2024-02-04T14:52:20;1.10;;;0.40;;
44222;SDS011;29895;48.804;9.386;2024-02-04T14:54:45;1.45;;;1.08;;
44222;SDS011;29895;48.804;9.386;2024-02-04T14:57:11;1.23;;;0.80;;
44222;SDS011;29895;48.804;9.386;2024-02-04T14:59:38;1.33;;;0.50;;
44222;SDS011;29895;48.804;9.386;2024-02-04T15:02:04;1.67;;;0.80;;
44222;SDS011;29895;48.804;9.386;2024-02-04T15:04:30;0.98;;;0.50;;